Time;durP1;ratioP1;P1;durP2;ratioP2;P2;SDS_P1;SDS_P2;PMS_P1;PMS_P2;Temp;Humidity;BMP_temperature;BMP_pressure;BME280_temperature;BME280_humidity;BME280_pressure;Samples;Min_cycle;Max_cycle;Signal;HPM_P1;HPM_P2
2022/05/23 00:00:55;;;;;;;3.00;1.13;;;;;;;-145.69;85.00;70773.66;5073456;28;20203;-77
2022/05/23 00:03:24;;;;;;;3.37;1.10;;;;;;;-145.69;86.34;70811.44;5066715;28;20203;-77
2022/05/23 00:05:50;;;;;;;2.43;1.20;;;;;;;-145.69;85.85;70837.31;5052980;28;20289;-77
2022/05/23 00:08:17;;;;;;;1.33;1.10;;;;;;;-145.69;86.08;70857.22;5059175;28;20198;-76
2022/05/23 00:10:46;;;;;;;0.98;0.88;;;;;;;-145.69;86.14;70839.31;5072544;28;20199;-77
2022/05/23 00:13:13;;;;;;;1.65;1.05;;;;;;;-145.69;87.50;70845.28;5073327;28;20206;-77
2022/05/23 00:15:41;;;;;;;4.23;1.20;;;;;;;-145.69;88.58;70861.19;5073242;28;20322;-77
2022/05/23 00:18:09;;;;;;;2.38;1.02;;;;;;;-145.69;89.67;70865.16;5072765;28;20553;-77
2022/05/23 00:20:35;;;;;;;1.35;1.15;;;;;;;-145.69;88.35;70869.16;5073100;28;20277;-78
2022/05/23 00:23:02;;;;;;;2.50;1.20;;;;;;;-145.69;88.87;70877.09;5072339;28;20199;-78
2022/05/23 00:25:28;;;;;;;2.83;1.00;;;;;;;-145.69;87.32;70853.22;5073223;28;20206;-78
2022/05/23 00:27:55;;;;;;;2.37;1.30;;;;;;;-145.69;88.00;70871.13;5072669;28;20202;-78
2022/05/23 00:30:25;;;;;;;0.93;0.90;;;;;;;-145.69;89.64;70889.03;5072988;28;20244;-77
2022/05/23 00:35:38;;;;;;;1.35;1.00;;;;;;;-145.69;91.40;70891.03;5072631;28;20482;-77
2022/05/23 00:38:05;;;;;;;1.97;0.90;;;;;;;-145.69;93.67;70873.13;5072660;28;20209;-77
2022/05/23 00:40:43;;;;;;;3.47;1.20;;;;;;;-145.69;93.17;70879.09;5073015;28;20201;-77
2022/05/23 00:43:14;;;;;;;2.70;1.20;;;;;;;-145.69;92.92;70875.13;5072916;28;20210;-77
2022/05/23 00:45:41;;;;;;;1.83;1.03;;;;;;;-145.69;93.85;70871.13;5072811;28;20297;-77
2022/05/23 00:48:10;;;;;;;8.73;1.30;;;;;;;-145.69;97.02;70875.13;5072647;28;20206;-78
2022/05/23 00:50:39;;;;;;;3.53;1.20;;;;;;;-145.69;98.66;70885.06;5072823;28;20210;-78
2022/05/23 00:53:09;;;;;;;1.40;1.30;;;;;;;-145.69;99.34;70899.00;5072788;28;20206;-78
2022/05/23 00:55:38;;;;;;;2.77;1.20;;;;;;;-145.69;98.16;70895.00;5072420;28;20886;-77
2022/05/23 00:58:08;;;;;;;2.30;1.30;;;;;;;-145.69;99.24;70908.94;5072283;28;20198;-77
2022/05/23 01:00:35;;;;;;;3.40;1.23;;;;;;;-145.69;100.00;70914.91;5061853;28;20210;-78
2022/05/23 01:03:07;;;;;;;2.00;1.30;;;;;;;-145.69;100.00;70920.88;5072654;28;20209;-78
2022/05/23 01:05:37;;;;;;;2.90;1.43;;;;;;;-145.69;100.00;70908.94;5072873;28;20207;-78
2022/05/23 01:08:04;;;;;;;5.27;1.70;;;;;;;-145.69;100.00;70912.91;5072576;28;20199;-77
2022/05/23 01:10:32;;;;;;;4.30;1.63;;;;;;;-145.69;100.00;70895.00;5072326;28;20609;-78
2022/05/23 01:12:59;;;;;;;3.00;1.40;;;;;;;-145.69;99.93;70897.00;5072439;28;20203;-77
2022/05/23 01:15:29;;;;;;;6.53;1.23;;;;;;;-145.69;100.00;70900.97;5072573;28;20351;-78
2022/05/23 01:17:55;;;;;;;4.13;1.40;;;;;;;-145.69;97.83;70885.06;5072357;28;20444;-78
2022/05/23 01:20:23;;;;;;;3.53;1.30;;;;;;;-145.69;99.49;70889.03;5072147;28;20558;-78
2022/05/23 01:23:04;;;;;;;3.33;1.23;;;;;;;-145.69;95.95;70857.22;5072371;28;20203;-78
2022/05/23 01:25:33;;;;;;;3.07;1.30;;;;;;;-145.69;94.67;70813.44;5056063;28;20602;-77
2022/05/23 01:28:00;;;;;;;1.80;1.20;;;;;;;-145.69;91.06;70773.66;5056289;28;20561;-77
2022/05/23 01:30:27;;;;;;;3.50;1.50;;;;;;;-145.69;91.01;70769.66;5075110;28;20198;-77
2022/05/23 01:32:54;;;;;;;2.50;1.40;;;;;;;-145.69;90.86;70781.59;5058911;28;20650;-77
2022/05/23 01:35:20;;;;;;;3.00;1.27;;;;;;;-145.69;89.98;70773.66;5056465;28;20219;-77
2022/05/23 01:37:47;;;;;;;2.00;1.20;;;;;;;-145.69;86.75;70741.81;5055777;28;20203;-77
2022/05/23 01:40:17;;;;;;;2.50;1.10;;;;;;;-145.69;85.88;70713.97;5072616;28;20203;-77
2022/05/23 01:42:48;;;;;;;4.63;1.40;;;;;;;-145.69;84.31;70678.16;5076018;28;20215;-78
2022/05/23 01:45:18;;;;;;;2.27;1.20;;;;;;;-145.69;81.83;70654.28;5075929;28;20198;-79
2022/05/23 01:47:45;;;;;;;1.42;1.10;;;;;;;-145.69;81.40;70638.34;5075544;28;20225;-78
2022/05/23 01:50:12;;;;;;;1.30;1.00;;;;;;;-145.69;80.29;70618.47;5075510;28;20195;-78
2022/05/23 01:52:39;;;;;;;2.13;1.40;;;;;;;-145.69;78.80;70598.56;5075310;28;20431;-78
2022/05/23 01:55:07;;;;;;;3.55;1.38;;;;;;;-145.69;79.17;70602.56;5075786;28;20234;-79
2022/05/23 01:57:35;;;;;;;2.00;1.63;;;;;;;-145.69;80.45;70602.56;5075497;28;20203;-78
2022/05/23 02:02:49;;;;;;;1.55;1.15;;;;;;;-145.69;78.74;70586.63;5055452;28;20201;-78
2022/05/23 02:05:17;;;;;;;1.83;1.27;;;;;;;-145.69;78.04;70578.69;5057611;28;20206;-78
2022/05/23 02:07:44;;;;;;;1.42;1.13;;;;;;;-145.69;78.48;70590.63;5058144;28;20205;-78
2022/05/23 02:10:11;;;;;;;3.03;1.30;;;;;;;-145.69;78.91;70574.69;5075612;28;20199;-79
2022/05/23 02:12:38;;;;;;;3.88;1.50;;;;;;;-145.69;82.05;70602.56;5075381;28;20198;-78
2022/05/23 02:15:08;;;;;;;4.93;1.48;;;;;;;-145.69;79.27;70582.66;5075250;28;20270;-78
2022/05/23 02:17:34;;;;;;;6.93;1.25;;;;;;;-145.69;81.00;70594.59;5074788;28;20199;-78
2022/05/23 02:20:02;;;;;;;5.60;1.50;;;;;;;-145.69;79.79;70570.72;5075259;28;20213;-78
2022/05/23 02:22:28;;;;;;;4.20;1.95;;;;;;;-145.69;80.68;70562.75;5075130;28;20195;-79
2022/05/23 02:24:55;;;;;;;4.40;1.40;;;;;;;-145.69;80.90;70548.84;5074830;28;20810;-76
2022/05/23 02:27:21;;;;;;;3.80;1.25;;;;;;;-145.69;81.11;70550.81;5074989;28;20657;-77
2022/05/23 02:29:48;;;;;;;4.60;1.35;;;;;;;-145.69;81.74;70536.91;5074566;28;20230;-76
2022/05/23 02:32:16;;;;;;;2.55;1.25;;;;;;;-145.69;80.91;70522.97;5075400;28;20545;-78
2022/05/23 02:34:42;;;;;;;2.22;1.40;;;;;;;-145.69;79.51;70505.06;5074431;28;20205;-77
2022/05/23 02:37:10;;;;;;;1.70;1.10;;;;;;;-145.69;79.72;70511.03;5074757;28;20201;-77
2022/05/23 02:39:37;;;;;;;4.90;1.60;;;;;;;-145.69;81.89;70526.94;5074514;28;20564;-77
2022/05/23 02:42:04;;;;;;;3.92;1.73;;;;;;;-145.69;82.67;70536.91;5074615;28;20203;-77
2022/05/23 02:44:30;;;;;;;3.75;1.67;;;;;;;-145.69;85.21;70534.91;5074452;28;20199;-77
2022/05/23 02:46:57;;;;;;;2.97;1.73;;;;;;;-145.69;83.48;70532.91;5074825;28;20225;-77
2022/05/23 02:49:25;;;;;;;3.35;1.77;;;;;;;-145.69;88.29;70546.84;5074304;28;20205;-77
2022/05/23 02:51:51;;;;;;;2.90;1.63;;;;;;;-145.69;84.92;70522.97;5074556;28;20686;-77
2022/05/23 02:54:18;;;;;;;5.53;2.28;;;;;;;-145.69;85.49;70519.00;5074497;28;20649;-78
2022/05/23 02:56:44;;;;;;;4.45;1.80;;;;;;;-145.69;86.69;70528.94;5074344;28;20226;-78
2022/05/23 02:59:10;;;;;;;2.45;1.50;;;;;;;-145.69;87.54;70511.03;5065056;28;20198;-77
2022/05/23 03:03:01;;;;;;;6.05;2.15;;;;;;;-145.69;86.90;70491.13;5073536;28;20438;-78
2022/05/23 03:04:24;;;;;;;6.55;2.00;;;;;;;-145.69;86.02;70479.19;5074216;28;20198;-77
2022/05/23 03:06:52;;;;;;;6.72;2.03;;;;;;;-145.69;86.38;70471.25;5074172;28;20751;-77
2022/05/23 03:09:18;;;;;;;2.58;2.00;;;;;;;-145.69;85.71;70433.44;5074045;28;20549;-77
2022/05/23 03:11:45;;;;;;;3.67;1.85;;;;;;;-145.69;84.98;70411.56;5074030;28;20203;-78
2022/05/23 03:14:11;;;;;;;4.03;1.70;;;;;;;-145.69;82.85;70411.56;5074029;28;20195;-77
2022/05/23 03:16:38;;;;;;;4.20;1.63;;;;;;;-145.69;81.99;70407.59;5074105;28;20237;-78
2022/05/23 03:19:04;;;;;;;3.22;1.70;;;;;;;-145.69;81.10;70397.63;5073605;28;20195;-78
2022/05/23 03:27:00;;;;;;;4.20;1.73;;;;;;;-145.69;80.45;70415.53;5073966;28;20672;-78
2022/05/23 03:29:26;;;;;;;5.80;1.90;;;;;;;-145.69;80.58;70411.56;5073708;28;20199;-78
2022/05/23 03:31:52;;;;;;;3.25;1.75;;;;;;;-145.69;80.28;70387.69;5073638;28;20245;-79
2022/05/23 03:34:19;;;;;;;5.38;1.92;;;;;;;-145.69;79.88;70363.81;5073596;28;20195;-78
2022/05/23 03:36:47;;;;;;;6.57;2.00;;;;;;;-145.69;80.27;70343.94;5073098;28;20704;-78
2022/05/23 03:39:13;;;;;;;5.30;1.90;;;;;;;-145.69;80.62;70332.00;5073894;28;20293;-77
2022/05/23 03:41:40;;;;;;;3.15;1.80;;;;;;;-145.69;80.22;70339.94;5073163;28;20554;-77
2022/05/23 03:44:07;;;;;;;5.15;1.83;;;;;;;-145.69;79.49;70343.94;5073624;28;20203;-78
2022/05/23 03:46:37;;;;;;;7.43;2.00;;;;;;;-145.69;77.90;70343.94;5072231;28;20191;-78
2022/05/23 03:49:06;;;;;;;4.50;2.00;;;;;;;-145.69;77.93;70339.94;5073315;28;20199;-78
2022/05/23 03:51:33;;;;;;;3.35;1.73;;;;;;;-145.69;78.21;70337.97;5073069;28;20199;-77
2022/05/23 03:54:01;;;;;;;2.28;1.67;;;;;;;-145.69;79.46;70357.84;5073343;28;20210;-78
2022/05/23 03:56:27;;;;;;;2.13;1.70;;;;;;;-145.69;78.60;70375.75;5072926;28;20317;-78
2022/05/23 03:58:54;;;;;;;3.90;2.08;;;;;;;-145.69;81.33;70397.63;5073207;28;20264;-78
2022/05/23 04:01:22;;;;;;;5.20;1.90;;;;;;;-145.69;85.51;70415.53;5073260;28;20205;-78
2022/05/23 04:03:49;;;;;;;4.05;1.75;;;;;;;-145.69;87.29;70425.50;5071065;28;20298;-77
2022/05/23 04:06:15;;;;;;;3.67;2.00;;;;;;;-145.69;89.26;70435.44;5068971;28;20202;-77
2022/05/23 04:08:42;;;;;;;2.95;2.00;;;;;;;-145.69;91.10;70457.31;5073295;28;20286;-77
2022/05/23 04:11:10;;;;;;;4.63;1.88;;;;;;;-145.69;91.53;70469.25;5073224;28;20194;-77
2022/05/23 04:13:36;;;;;;;4.47;2.20;;;;;;;-145.69;92.82;70493.13;5072933;28;20233;-78
2022/05/23 04:16:04;;;;;;;5.05;1.98;;;;;;;-145.69;92.46;70501.09;5072857;28;20603;-78
2022/05/23 04:18:30;;;;;;;4.30;1.85;;;;;;;-145.69;95.21;70509.03;5072906;28;20206;-77
2022/05/23 04:20:58;;;;;;;5.43;2.33;;;;;;;-145.69;95.08;70519.00;5073253;28;20203;-77
2022/05/23 04:23:24;;;;;;;3.83;2.00;;;;;;;-145.69;96.13;70530.94;5072672;28;20226;-77
2022/05/23 04:25:51;;;;;;;4.15;2.13;;;;;;;-145.69;94.13;70526.94;5073009;28;20206;-77
2022/05/23 04:28:21;;;;;;;4.55;1.80;;;;;;;-145.69;93.75;70536.91;5072981;28;20207;-77
2022/05/23 04:30:48;;;;;;;3.17;1.65;;;;;;;-145.69;89.57;70546.84;5072949;28;20211;-77
2022/05/23 04:35:59;;;;;;;4.60;1.92;;;;;;;-145.69;86.68;70509.03;5072842;28;20229;-77
2022/05/23 04:38:26;;;;;;;3.95;1.90;;;;;;;-145.69;84.52;70479.19;5072815;28;20203;-77
2022/05/23 04:40:53;;;;;;;6.25;2.30;;;;;;;-145.69;82.65;70451.34;5072798;28;20206;-77
2022/05/23 04:43:21;;;;;;;4.57;2.33;;;;;;;-145.69;81.31;70443.41;5071411;28;20447;-79
2022/05/23 04:45:47;;;;;;;5.88;2.50;;;;;;;-145.69;80.03;70425.50;5073183;28;20199;-77
2022/05/23 04:50:58;;;;;;;10.38;2.25;;;;;;;-145.69;82.97;70437.44;5072909;28;20197;-77
2022/05/23 04:53:25;;;;;;;4.53;1.88;;;;;;;-145.69;82.76;70431.47;5072504;28;20205;-78
2022/05/23 04:55:51;;;;;;;3.63;2.28;;;;;;;-145.69;86.82;70427.47;5072421;28;20227;-78
2022/05/23 04:58:18;;;;;;;4.72;2.10;;;;;;;-145.69;85.93;70455.34;5075489;28;20520;-78
2022/05/23 05:00:45;;;;;;;6.93;2.30;;;;;;;-145.69;84.33;70471.25;5076880;28;20206;-78
2022/05/23 05:03:12;;;;;;;10.95;1.90;;;;;;;-145.69;85.44;70457.31;5076393;28;20195;-77
2022/05/23 05:05:39;;;;;;;3.63;1.95;;;;;;;-145.69;89.58;70467.28;5076562;28;20653;-77
2022/05/23 05:08:05;;;;;;;4.30;1.90;;;;;;;-145.69;88.57;70483.19;5076405;28;20661;-78
2022/05/23 05:10:32;;;;;;;3.95;1.98;;;;;;;-145.69;88.39;70487.16;5076406;28;20207;-78
2022/05/23 05:12:59;;;;;;;5.85;1.90;;;;;;;-145.69;90.74;70483.19;5076392;28;20194;-78
2022/05/23 05:15:28;;;;;;;6.93;2.10;;;;;;;-145.69;90.84;70495.13;5076154;28;20445;-78
2022/05/23 05:17:56;;;;;;;6.15;2.50;;;;;;;-145.69;91.32;70491.13;5076321;28;20935;-78
2022/05/23 05:20:24;;;;;;;4.25;2.22;;;;;;;-145.69;89.96;70483.19;5076495;28;20195;-78
2022/05/23 05:22:52;;;;;;;5.75;2.05;;;;;;;-145.69;94.06;70463.28;5075868;28;20229;-77
2022/05/23 05:25:19;;;;;;;5.60;2.10;;;;;;;-145.69;91.23;70447.38;5076183;28;20209;-78
2022/05/23 05:27:46;;;;;;;3.85;2.00;;;;;;;-145.69;88.81;70423.50;5076370;28;20203;-78
2022/05/23 05:30:15;;;;;;;2.65;1.83;;;;;;;-145.69;84.20;70405.59;5076287;28;20202;-78
2022/05/23 05:32:46;;;;;;;5.35;1.80;;;;;;;-145.69;90.08;70379.72;5075726;28;20561;-77
2022/05/23 05:35:19;;;;;;;5.15;1.92;;;;;;;-145.69;86.84;70345.91;5056112;28;20209;-78
2022/05/23 05:37:48;;;;;;;3.40;1.50;;;;;;;-145.69;84.21;70312.09;5055895;28;20281;-78
2022/05/23 05:40:19;;;;;;;6.53;1.88;;;;;;;-145.69;83.97;70296.19;5056434;28;20207;-78
2022/05/23 05:42:49;;;;;;;4.38;1.90;;;;;;;-145.69;87.90;70292.19;5072319;28;20199;-78
2022/05/23 05:45:22;;;;;;;4.10;1.73;;;;;;;-145.69;85.78;70278.28;5075872;28;20716;-78
2022/05/23 05:47:50;;;;;;;2.50;1.75;;;;;;;-145.69;84.04;70264.34;5075817;28;20630;-78
2022/05/23 05:50:28;;;;;;;4.70;2.00;;;;;;;-145.69;81.82;70248.44;5074531;28;20924;-78
2022/05/23 05:52:58;;;;;;;3.33;1.60;;;;;;;-145.69;81.72;70214.63;5075740;28;20194;-79
2022/05/23 05:55:25;;;;;;;2.72;1.60;;;;;;;-145.69;82.35;70188.75;5075821;28;20210;-78
2022/05/23 05:57:52;;;;;;;3.00;1.38;;;;;;;-145.69;79.25;70168.88;5075671;28;20313;-78
2022/05/23 06:00:19;;;;;;;2.75;1.50;;;;;;;-145.69;81.67;70152.97;5075340;28;20205;-78
2022/05/23 06:02:47;;;;;;;7.47;1.50;;;;;;;-145.69;76.38;70145.00;5075463;28;20220;-78
2022/05/23 06:05:13;;;;;;;3.85;1.50;;;;;;;-145.69;80.67;70160.91;5075802;28;20199;-78
2022/05/23 06:13:14;;;;;;;5.25;1.65;;;;;;;-145.69;80.93;70192.75;5075241;28;20248;-79
2022/05/23 06:15:41;;;;;;;4.35;1.70;;;;;;;-145.69;79.00;70184.78;5075586;28;20205;-78
2022/05/23 06:18:08;;;;;;;4.47;1.50;;;;;;;-145.69;79.56;70164.88;5075687;28;20220;-78
2022/05/23 06:20:35;;;;;;;7.43;1.88;;;;;;;-145.69;77.96;70152.97;5075129;28;20191;-78
2022/05/23 06:23:04;;;;;;;3.13;1.45;;;;;;;-145.69;78.59;70107.19;5074899;28;20876;-77
2022/05/23 06:25:30;;;;;;;3.35;1.60;;;;;;;-145.69;78.90;70071.41;5075068;28;20202;-79
2022/05/23 06:27:57;;;;;;;5.72;1.50;;;;;;;-145.69;76.53;70049.50;5075235;28;20550;-77
2022/05/23 06:30:25;;;;;;;6.35;1.63;;;;;;;-145.69;76.03;70033.59;5074895;28;20244;-78
2022/05/23 06:32:52;;;;;;;6.25;2.00;;;;;;;-145.69;74.28;70007.75;5075091;28;20222;-78
2022/05/23 06:35:19;;;;;;;3.35;1.58;;;;;;;-145.69;77.20;70005.75;5074894;28;20199;-78
2022/05/23 06:37:45;;;;;;;2.15;1.50;;;;;;;-145.69;75.40;70023.66;5074737;28;20233;-78
2022/05/23 06:40:15;;;;;;;4.25;1.80;;;;;;;-145.69;76.34;70057.47;5074674;28;20248;-78
2022/05/23 06:42:41;;;;;;;4.03;1.80;;;;;;;-145.69;74.67;70053.50;5075007;28;20233;-78
2022/05/23 06:45:09;;;;;;;3.47;1.40;;;;;;;-145.69;79.19;70005.75;5074989;28;20207;-78
2022/05/23 06:47:36;;;;;;;5.85;1.70;;;;;;;-145.69;73.86;69969.94;5074697;28;20205;-77
2022/05/23 06:50:05;;;;;;;5.90;1.48;;;;;;;-145.69;75.23;69942.09;5074337;28;20650;-78
2022/05/23 06:52:33;;;;;;;5.03;1.50;;;;;;;-145.69;73.28;69870.50;5074522;28;20206;-78
2022/05/23 06:55:00;;;;;;;8.20;1.67;;;;;;;-145.69;66.95;69830.72;5074793;28;20199;-78
2022/05/23 06:57:27;;;;;;;4.13;1.38;;;;;;;-145.69;68.12;69808.84;5074452;28;20766;-78
2022/05/23 06:59:54;;;;;;;7.65;2.05;;;;;;;-145.69;66.69;69763.09;5074167;28;20596;-78
2022/05/23 07:02:20;;;;;;;3.85;1.83;;;;;;;-145.69;69.98;69771.03;5074499;28;20201;-79
2022/05/23 07:13:00;;;;;;;7.68;1.55;;;;;;;-145.69;66.85;69717.34;5074229;28;20694;-78
2022/05/23 07:15:35;;;;;;;4.38;1.60;;;;;;;-145.69;65.63;69719.31;5074083;28;20199;-78
2022/05/23 07:18:03;;;;;;;4.93;1.80;;;;;;;-145.69;70.99;69792.91;5074261;28;20635;-78
2022/05/23 07:20:29;;;;;;;4.05;1.52;;;;;;;-145.69;69.35;69806.84;5073861;28;20195;-78
2022/05/23 07:22:56;;;;;;;3.13;1.20;;;;;;;-145.69;69.36;69798.88;5073792;28;20703;-79
2022/05/23 07:25:22;;;;;;;2.88;1.30;;;;;;;-145.69;73.52;69862.53;5074428;28;20252;-77
2022/05/23 07:27:48;;;;;;;4.20;1.40;;;;;;;-145.69;72.76;69850.59;5073814;28;20207;-78
2022/05/23 07:30:16;;;;;;;3.85;1.83;;;;;;;-145.69;72.31;69822.75;5073594;28;20199;-78
2022/05/23 07:32:43;;;;;;;6.22;2.00;;;;;;;-145.69;73.78;69820.75;5073611;28;20206;-78
2022/05/23 07:35:10;;;;;;;3.45;1.48;;;;;;;-145.69;73.03;69810.81;5073821;28;20445;-78
2022/05/23 07:37:36;;;;;;;5.05;1.73;;;;;;;-145.69;70.97;69830.72;5073628;28;20326;-79
2022/05/23 07:40:03;;;;;;;3.33;1.83;;;;;;;-145.69;70.35;69786.94;5073507;28;20199;-80
2022/05/23 07:42:29;;;;;;;4.60;1.90;;;;;;;-145.69;69.52;69745.19;5073513;28;20198;-78
2022/05/23 07:44:56;;;;;;;5.00;1.65;;;;;;;-145.69;67.68;69733.25;5073607;28;20293;-79
2022/05/23 07:47:24;;;;;;;3.42;2.00;;;;;;;-145.69;67.05;69792.91;5073458;28;20645;-78
2022/05/23 07:49:51;;;;;;;4.10;1.90;;;;;;;-145.69;70.43;69773.03;5073224;28;20711;-78
2022/05/23 07:52:18;;;;;;;4.75;1.83;;;;;;;-145.69;74.40;69747.16;5073616;28;20195;-78
2022/05/23 08:00:33;;;;;;;5.15;1.67;;;;;;;-145.69;67.66;69663.63;5058575;28;20320;-77
2022/05/23 08:03:05;;;;;;;4.55;1.60;;;;;;;-145.69;67.85;69675.56;5073337;28;20680;-77
2022/05/23 08:05:32;;;;;;;5.57;1.85;;;;;;;-145.69;67.58;69731.25;5072485;28;20469;-77
2022/05/23 08:07:58;;;;;;;2.67;1.42;;;;;;;-145.69;67.91;69737.22;5073146;28;20194;-78
2022/05/23 08:10:25;;;;;;;4.32;1.70;;;;;;;-145.69;66.84;69737.22;5073398;28;20206;-78
2022/05/23 08:12:55;;;;;;;3.90;1.80;;;;;;;-145.69;70.85;69703.41;5073237;28;20199;-78
2022/05/23 08:15:23;;;;;;;3.53;1.60;;;;;;;-145.69;66.73;69721.31;5073259;28;20203;-78
2022/05/23 08:17:49;;;;;;;3.72;1.65;;;;;;;-145.69;68.30;69707.38;5072761;28;20218;-78
2022/05/23 08:20:17;;;;;;;4.28;1.98;;;;;;;-145.69;68.68;69659.66;5073353;28;20252;-78
2022/05/23 08:22:44;;;;;;;5.60;1.67;;;;;;;-145.69;65.56;69615.91;5073163;28;20269;-80
2022/05/23 08:25:11;;;;;;;6.72;1.90;;;;;;;-145.69;65.31;69633.78;5072954;28;20230;-78
2022/05/23 08:27:38;;;;;;;3.13;2.00;;;;;;;-145.69;69.49;69580.09;5072839;28;20199;-78
2022/05/23 08:30:06;;;;;;;5.28;1.83;;;;;;;-145.69;66.15;69596.00;5073208;28;20199;-79
2022/05/23 08:32:32;;;;;;;5.00;1.80;;;;;;;-145.69;64.99;69516.44;5072408;28;20260;-78
2022/05/23 08:34:58;;;;;;;5.47;1.83;;;;;;;-145.69;59.69;69454.78;5073133;28;20653;-77
2022/05/23 08:37:26;;;;;;;3.90;1.80;;;;;;;-145.69;63.38;69500.53;5072650;28;20222;-79
2022/05/23 08:39:53;;;;;;;6.60;2.20;;;;;;;-145.69;65.46;69436.91;5072221;28;20430;-78
2022/05/23 08:42:30;;;;;;;9.50;1.90;;;;;;;-145.69;60.92;69397.13;5072982;28;20203;-78
2022/05/23 08:45:07;;;;;;;5.32;2.05;;;;;;;-145.69;58.79;69432.91;5072811;28;20291;-78
2022/05/23 08:47:39;;;;;;;5.05;1.70;;;;;;;-145.69;61.13;69452.81;5072671;28;21671;-78
2022/05/23 08:50:14;;;;;;;2.55;1.70;;;;;;;-145.69;62.53;69438.88;5073158;28;20253;-78
2022/05/23 08:52:48;;;;;;;3.85;2.00;;;;;;;-145.69;63.54;69472.69;5072937;28;20206;-77
2022/05/23 08:55:19;;;;;;;2.90;1.73;;;;;;;-145.69;66.01;69492.59;5072768;28;20205;-77
2022/05/23 08:57:52;;;;;;;4.25;1.80;;;;;;;-145.69;64.18;69500.53;5072546;28;21169;-77
2022/05/23 09:00:24;;;;;;;3.92;1.80;;;;;;;-145.69;63.51;69496.56;5073042;28;20237;-77
2022/05/23 09:02:54;;;;;;;6.80;1.90;;;;;;;-145.69;63.40;69488.59;5072756;28;20289;-77
2022/05/23 09:05:25;;;;;;;6.97;2.00;;;;;;;-145.69;63.49;69514.47;5072674;28;20241;-78
2022/05/23 09:07:58;;;;;;;6.05;1.80;;;;;;;-145.69;65.00;69516.44;5072465;28;20595;-79
2022/05/23 09:10:30;;;;;;;4.78;2.22;;;;;;;-145.69;66.46;69568.16;5072866;28;20202;-78
2022/05/23 09:12:57;;;;;;;4.82;1.88;;;;;;;-145.69;61.87;69508.50;5072423;28;20653;-78
2022/05/23 09:15:25;;;;;;;3.97;1.92;;;;;;;-145.69;63.23;69476.66;5072653;28;20245;-77
2022/05/23 09:17:57;;;;;;;4.85;2.00;;;;;;;-145.69;62.00;69440.88;5072199;28;20214;-78
2022/05/23 09:20:34;;;;;;;5.90;2.00;;;;;;;-145.69;60.51;69464.75;5072457;28;20603;-77
2022/05/23 09:23:07;;;;;;;4.00;2.08;;;;;;;-145.69;61.73;69520.44;5072489;28;20252;-78
2022/05/23 09:25:33;;;;;;;4.53;1.67;;;;;;;-145.69;62.03;69562.19;5072787;28;20222;-78
2022/05/23 09:28:19;;;;;;;4.53;2.03;;;;;;;-145.69;68.00;69540.31;5072146;28;20195;-78
2022/05/23 09:30:49;;;;;;;14.55;2.35;;;;;;;-145.69;73.38;69516.44;5072593;28;20203;-77
2022/05/23 09:33:19;;;;;;;7.68;1.75;;;;;;;-145.69;70.13;69436.91;5072807;28;20202;-77
2022/05/23 09:35:53;;;;;;;3.70;1.80;;;;;;;-145.69;65.93;69345.41;5072562;28;20202;-77
2022/05/23 09:38:23;;;;;;;6.28;1.95;;;;;;;-145.69;61.00;69309.59;5071853;28;20227;-77
2022/05/23 09:40:50;;;;;;;3.78;2.22;;;;;;;-145.69;60.93;69319.56;5072470;28;20199;-77
2022/05/23 09:49:02;;;;;;;6.77;2.40;;;;;;;-145.69;65.34;69456.78;5074680;28;20437;-78
2022/05/23 09:51:28;;;;;;;9.68;2.28;;;;;;;-145.69;68.06;69510.47;5075877;28;20209;-77
2022/05/23 09:54:02;;;;;;;9.68;2.40;;;;;;;-145.69;70.56;69516.44;5068014;28;20598;-78
2022/05/23 09:56:31;;;;;;;5.53;2.20;;;;;;;-145.69;67.72;69510.47;5055921;28;20236;-78
2022/05/23 09:59:00;;;;;;;4.95;2.10;;;;;;;-145.69;68.48;69534.34;5068354;28;20235;-77
2022/05/23 10:01:28;;;;;;;6.03;2.28;;;;;;;-145.69;68.79;69580.09;5075771;28;20203;-78
2022/05/23 10:03:56;;;;;;;7.45;2.17;;;;;;;-145.69;70.52;69580.09;5075298;28;20252;-77
2022/05/23 10:06:34;;;;;;;6.18;2.30;;;;;;;-145.69;70.17;69586.06;5075636;28;20205;-78
2022/05/23 10:09:02;;;;;;;6.50;1.95;;;;;;;-145.69;73.25;69647.72;5075111;28;20202;-78
2022/05/23 10:11:31;;;;;;;9.23;2.80;;;;;;;-145.69;79.70;69679.53;5075260;28;20542;-78
2022/05/23 10:13:59;;;;;;;8.27;2.72;;;;;;;-145.69;86.12;69735.25;5075570;28;20202;-77
2022/05/23 10:16:28;;;;;;;8.77;2.60;;;;;;;-145.69;86.80;69773.03;5075431;28;20198;-78
2022/05/23 10:19:00;;;;;;;7.53;2.53;;;;;;;-145.69;90.36;69818.78;5074831;28;20218;-78
2022/05/23 10:21:31;;;;;;;6.00;3.03;;;;;;;-145.69;95.27;69818.78;5075243;28;20763;-78
2022/05/23 10:24:11;;;;;;;9.07;2.70;;;;;;;-145.69;91.95;69842.66;5075147;28;20231;-78
2022/05/23 10:26:45;;;;;;;9.18;3.05;;;;;;;-145.69;100.00;69874.47;5075155;28;20611;-78
2022/05/23 10:29:18;;;;;;;6.18;3.45;;;;;;;-145.69;100.00;69890.38;5074602;28;20201;-78
2022/05/23 10:31:48;;;;;;;7.18;3.45;;;;;;;-145.69;100.00;69922.22;5075285;28;20202;-78
2022/05/23 10:34:28;;;;;;;10.77;3.30;;;;;;;-145.69;100.00;70031.63;5074819;28;20199;-78
2022/05/23 10:37:00;;;;;;;8.10;3.78;;;;;;;-145.69;100.00;70095.28;5075006;28;20205;-79
2022/05/23 10:42:24;;;;;;;18.23;4.55;;;;;;;-145.69;100.00;70320.06;5054636;28;20199;-76
2022/05/23 10:45:10;;;;;;;14.55;4.30;;;;;;;-145.69;100.00;70369.78;5054735;28;20677;-78
2022/05/23 10:47:50;;;;;;;13.98;4.85;;;;;;;-145.69;100.00;70421.50;5054180;28;20440;-76
2022/05/23 10:50:22;;;;;;;14.85;4.53;;;;;;;-145.69;100.00;70425.50;5065131;28;20681;-76
2022/05/23 10:52:58;;;;;;;19.85;5.63;;;;;;;-145.69;100.00;70441.41;5074773;28;20285;-76
2022/05/23 10:55:33;;;;;;;18.17;5.97;;;;;;;-145.69;100.00;70455.34;5074335;28;20205;-76
2022/05/23 10:58:13;;;;;;;16.58;4.78;;;;;;;-145.69;100.00;70459.31;5074611;28;20240;-76
2022/05/23 11:00:49;;;;;;;8.98;3.20;;;;;;;-145.69;100.00;70457.31;5074206;28;20204;-76
2022/05/23 11:03:26;;;;;;;11.48;3.53;;;;;;;-145.69;100.00;70455.34;5073950;28;20285;-76
2022/05/23 11:06:01;;;;;;;9.38;3.00;;;;;;;-145.69;100.00;70449.38;5074117;28;20561;-76
2022/05/23 11:08:53;;;;;;;15.40;3.83;;;;;;;-145.69;100.00;70469.25;5074322;28;20233;-77
2022/05/23 11:11:31;;;;;;;8.20;3.40;;;;;;;-145.69;100.00;70465.28;5073909;28;20453;-76
2022/05/23 11:14:10;;;;;;;11.85;3.35;;;;;;;-145.69;100.00;70435.44;5073901;28;20657;-76
2022/05/23 11:16:52;;;;;;;15.50;4.30;;;;;;;-145.69;100.00;70401.63;5073648;28;20645;-75
2022/05/23 11:19:33;;;;;;;10.93;3.15;;;;;;;-145.69;100.00;70345.91;5073866;28;20222;-77
2022/05/23 11:22:14;;;;;;;9.18;2.22;;;;;;;-145.69;100.00;70328.00;5073813;28;20669;-76
2022/05/23 11:24:48;;;;;;;3.70;1.50;;;;;;;-145.69;100.00;70298.16;5073765;28;20230;-76
2022/05/23 11:36:02;;;;;;;5.50;1.95;;;;;;;-145.69;100.00;70300.16;5008649;28;20209;-77
2022/05/23 11:38:29;;;;;;;11.60;3.00;;;;;;;-145.69;100.00;70286.25;5027999;28;20693;-76
2022/05/23 11:41:11;;;;;;;15.52;2.30;;;;;;;-145.69;100.00;70278.28;5053890;28;20235;-77
2022/05/23 11:43:39;;;;;;;9.68;2.20;;;;;;;-145.69;100.00;70268.34;5053959;28;20202;-77
2022/05/23 11:46:11;;;;;;;8.77;2.40;;;;;;;-145.69;100.00;70250.44;5055763;28;20199;-76
2022/05/23 11:48:54;;;;;;;5.03;2.28;;;;;;;-145.69;100.00;70236.50;5064217;28;20202;-77
2022/05/23 11:51:40;;;;;;;8.32;2.03;;;;;;;-145.69;100.00;70224.56;5073720;28;20262;-77
2022/05/23 11:54:14;;;;;;;9.07;2.50;;;;;;;-145.69;100.00;70188.75;5072581;28;20438;-77
2022/05/23 11:57:14;;;;;;;5.43;2.30;;;;;;;-145.69;100.00;70117.16;5073437;28;20644;-77
2022/05/23 12:00:07;;;;;;;10.90;2.08;;;;;;;-145.69;100.00;70085.31;5073363;28;20237;-77
2022/05/23 12:02:39;;;;;;;6.47;1.92;;;;;;;-145.69;100.00;70027.63;5073366;28;20199;-77
2022/05/23 12:05:30;;;;;;;8.73;2.30;;;;;;;-145.69;100.00;69922.22;5073059;28;20203;-77
2022/05/23 12:08:22;;;;;;;4.43;1.88;;;;;;;-145.69;100.00;69898.34;5072623;28;20260;-77
2022/05/23 12:10:58;;;;;;;6.85;2.15;;;;;;;-145.69;100.00;69918.22;5073010;28;20572;-77
2022/05/23 12:13:51;;;;;;;7.30;1.98;;;;;;;-145.69;100.00;69862.53;5072949;28;20198;-76
2022/05/23 12:16:27;;;;;;;4.72;1.90;;;;;;;-145.69;100.00;69826.72;5072892;28;20274;-78
2022/05/23 12:19:12;;;;;;;4.97;1.90;;;;;;;-145.69;100.00;69755.13;5073259;28;20233;-77